Bewolking Meer informatie Parkstad Weather Satellite


Neerslag Meer informatie Parkstad Rain Snow Radar


Onweersbuien Meer informatie Parkstad Lighntning


24/7 Weercamera Meer informatie Parkstad Weathercam


Natuurbrandrisico
CBI






Het weer levert geen direct gevaar op in Parkstad.    Er zijn geen waarschuwingen afgegeven voor Parkstad (045)

METAR rapporten vliegvelden

   
EHBK - Beek Nederland
Gewijzigd: 21-10-2018 05:55
Helder  
Helder  
   Wind: ZZO 5.6 km/h
Wind: ZZO 5.6 km/h
Temperatuur: 4°C
Voelt als: 3°C
Dauwpunt: 4°C
Vochtigheid: 100%
Barometer: 1029 hPa
Satelliet beelden: Helder
Zicht: 6 km
Bewolking: Helder
EHBK 210355Z AUTO 16003KT 6000 NCD 04/04 Q1029 TEMPO 4500 BR
EHBK - Maastricht Nederland
Gewijzigd: 21-10-2018 05:55
Helder  
Helder  
   Wind: ZZO 5.6 km/h
Wind: ZZO 5.6 km/h
Temperatuur: 4°C
Voelt als: 3°C
Dauwpunt: 4°C
Vochtigheid: 100%
Barometer: 1029 hPa
Satelliet beelden: Helder
Zicht: 6 km
Bewolking: Helder
EHBK 210355Z AUTO 16003KT 6000 NCD 04/04 Q1029 TEMPO 4500 BR
EBLG - Liège België
Gewijzigd: 21-10-2018 05:50
Nevel, Gedeeltelijk bewolkt  
Nevel, Gedeeltelijk bewolkt  
   Wind: ZO 13 km/h
Wind: ZO 13 km/h
Temperatuur: 5°C
Voelt als: 2°C
Dauwpunt: 4°C
Vochtigheid: 93%
Barometer: 1029 hPa
Satelliet beelden: Gedeeltelijk bewolkt
Zicht: 2 km
Bewolking: Gedeeltelijk bewolkt
EBLG 210350Z 14007KT 1800 R22L/P2000N R22R/P2000N R04R/1300U BR NSC 05/04 Q1029 TEMPO 1200 BCFG
EDDK - Köln/Bonn Duitsland
Gewijzigd: 21-10-2018 05:50
Helder  
Helder  
   Wind: Oosten 5.6 km/h
Wind: Oosten 5.6 km/h
Temperatuur: 3°C
Voelt als: 2°C
Dauwpunt: 2°C
Vochtigheid: 93%
Barometer: 1030 hPa
Zicht: meer dan 10 km
Bewolking: Helder
EDDK 210350Z 10003KT CAVOK 03/02 Q1030 NOSIG
EDDL - Düsseldorf Duitsland
Gewijzigd: 21-10-2018 05:50
Helder  
Helder  
   Wind: ZZO 5.6 km/h
Wind: ZZO 5.6 km/h
Temperatuur: 2°C
Voelt als: 1°C
Dauwpunt: 2°C
Vochtigheid: 100%
Barometer: 1029 hPa
Zicht: meer dan 10 km
Bewolking: Helder
EDDL 210350Z 15003KT 120V180 CAVOK 02/02 Q1029 NOSIG
EHEH - Eindhoven Nederland
Gewijzigd: 21-10-2018 05:59
Nevel, Bewolking  
Nevel, Bewolking  
   Wind: ZZW 1.9 km/h
Wind: ZZW 1.9 km/h
Temperatuur: 3°C
Dauwpunt: 3°C
Vochtigheid: 100%
Barometer: 1029 hPa
Satelliet beelden: Bewolking
Zicht: 5 km
Bewolking: Bewolking 1463 m
EHEH 210359Z AUTO 21001KT 5000 BR OVC048 03/03 Q1029 WHT
ELLX - Luxemburg Luxemburg
Gewijzigd: 21-10-2018 05:50
Gedeeltelijk bewolkt  
Gedeeltelijk bewolkt  
   Wind: NO 18.5 km/h
Wind: NO 18.5 km/h
Temperatuur: 7°C
Voelt als: 4°C
Dauwpunt: 4°C
Vochtigheid: 81%
Barometer: 1028 hPa
Satelliet beelden: Gedeeltelijk bewolkt
Zicht: 9 km
Bewolking: Gedeeltelijk bewolkt
ELLX 210350Z 05010KT 9000 NSC 07/04 Q1028 NOSIG
EGLL - London England
Gewijzigd: 21-10-2018 05:50
Nevel, Patches of, Mist, Grotendeels bewolkt  
Nevel, Patches of, Mist, Grotendeels bewolkt  
   Wind: varieert 5.6 km/h
Wind: varieert 5.6 km/h
Temperatuur: 9°C
Voelt als: 8°C
Dauwpunt: 8°C
Vochtigheid: 94%
Barometer: 1029 hPa
Satelliet beelden: Grotendeels bewolkt
Zicht: 1 km
Bewolking: Grotendeels bewolkt 31 m
EGLL 210350Z VRB03KT 1400 0600SW R27R/P1500 BR BCFG BKN001 09/08 Q1029
EBAW - Antwerpen België
Gewijzigd: 21-10-2018 05:50
Nevel, Helder  
Nevel, Helder  
   Wind: OZO 1.9 km/h
Wind: OZO 1.9 km/h
Temperatuur: 6°C
Dauwpunt: 4°C
Vochtigheid: 87%
Barometer: 1029 hPa
Satelliet beelden: Helder
Zicht: 4 km
Bewolking: Helder
EBAW 210350Z AUTO 12001KT 4200 BR NCD 06/04 Q1029
EBOS - Oostende België
Gewijzigd: 21-10-2018 05:50
Nevel, Gedeeltelijk bewolkt  
Nevel, Gedeeltelijk bewolkt  
   Wind: ZZO 5.6 km/h
Wind: ZZO 5.6 km/h
Temperatuur: 9°C
Voelt als: 8°C
Dauwpunt: 6°C
Vochtigheid: 82%
Barometer: 1029 hPa
Satelliet beelden: Gedeeltelijk bewolkt
Zicht: 5 km
Bewolking: Gedeeltelijk bewolkt
EBOS 210350Z 15003KT 110V180 5000 BR NSC 09/06 Q1029 TEMPO 3500 BR
LEAL - La Nucia Spanje
Gewijzigd: 21-10-2018 06:00
Grotendeels bewolkt  
Grotendeels bewolkt  
   Wind: ONO 31.5 km/h
Wind: ONO 31.5 km/h
Temperatuur: 22°C
Dauwpunt: 19°C
Vochtigheid: 83%
Barometer: 1019 hPa
Satelliet beelden: Grotendeels bewolkt
Zicht: meer dan 10 km
Bewolking: Licht bewolkt 366 m,
Grotendeels bewolkt 671 m
LEAL 210400Z 07017KT 9999 FEW012 BKN022 22/19 Q1019 NOSIG
TNCA - Oranjestad Aruba
Gewijzigd: 21-10-2018 06:00
Licht bewolkt  
Licht bewolkt  
   Wind: ONO 20.4 km/h
Wind: ONO 20.4 km/h
Temperatuur: 28°C
Gevoelstemperatuur: 31°C
Dauwpunt: 23°C
Vochtigheid: 74%
Barometer: 1010 hPa
Satelliet beelden: Licht bewolkt
Zicht: meer dan 10 km
Bewolking: Licht bewolkt 549 m
TNCA 210400Z 07011KT 9999 FEW018 28/23 Q1010 NOSIG
TNCC - Willemstad Curacao
Gewijzigd: 21-10-2018 06:00
Gedeeltelijk bewolkt  
Gedeeltelijk bewolkt  
   Wind: Oosten 22.2 km/h
Wind: Oosten 22.2 km/h
Temperatuur: 28°C
Gevoelstemperatuur: 31°C
Dauwpunt: 23°C
Vochtigheid: 74%
Barometer: 1010 hPa
Satelliet beelden: Gedeeltelijk bewolkt
Zicht: meer dan 10 km
Bewolking: Gedeeltelijk bewolkt
TNCC 210400Z AUTO 08012KT 9999 NSC 28/23 Q1010 NOSIG
MTPP - Port au Prince Haitië
Gewijzigd: 21-10-2018 02:00
Verouderd
Licht bewolkt  
Licht bewolkt  
   Wind: Westen 11.1 km/h
Wind: Westen 11.1 km/h
Temperatuur: 27°C
Gevoelstemperatuur: 29°C
Dauwpunt: 21°C
Vochtigheid: 70%
Barometer: 1009 hPa
Satelliet beelden: Licht bewolkt
Zicht: 9 km
Bewolking: Licht bewolkt 732 m
MTPP 210000Z 27006KT 9000 FEW024 27/21 Q1009 A2982
ENVA - Trondheim Noorwegen
Gewijzigd: 21-10-2018 05:50
Wat regen mogelijk, Grotendeels bewolkt  
Wat regen mogelijk, Grotendeels bewolkt  
   Wind: ONO 9.3 km/h
Wind: ONO 9.3 km/h
Temperatuur: 9°C
Voelt als: 8°C
Dauwpunt: 8°C
Vochtigheid: 94%
Barometer: 1009 hPa
Satelliet beelden: Grotendeels bewolkt
Zicht: meer dan 10 km
Bewolking: Gedeeltelijk bewolkt 975 m,
Grotendeels bewolkt 1219 m
ENVA 210350Z 07005KT 040V100 9999 -RA SCT032 BKN040 09/08 Q1009 RMK WIND 670FT 19009KT
ENBO - Bodø Noorwegen
Gewijzigd: 21-10-2018 05:50
Gedeeltelijk bewolkt  
Gedeeltelijk bewolkt  
   Wind: ZW 53.7 km/h
Wind: ZW 53.7 km/h
Temperatuur: 10°C
Voelt als: 6°C
Dauwpunt: 6°C
Vochtigheid: 76%
Barometer: 998 hPa
Satelliet beelden: Gedeeltelijk bewolkt
Zicht: meer dan 10 km
Bewolking: Licht bewolkt 610 m,
Gedeeltelijk bewolkt 1219 m
ENBO 210350Z 22029KT 9999 FEW020 SCT040 10/06 Q0998
ETNG - Geilenkirchen Duitsland
Gewijzigd: 19-10-2018 20:50
Verouderd
Grotendeels bewolkt  
Grotendeels bewolkt  
   Wind: NNO 3.7 km/h
Wind: NNO 3.7 km/h
Temperatuur: 13°C
Dauwpunt: 9°C
Vochtigheid: 77%
Barometer: 1025 hPa
Satelliet beelden: Grotendeels bewolkt
Zicht: meer dan 10 km
Bewolking: Grotendeels bewolkt 1219 m
ETNG 191850Z 03002KT 9999 BKN040 13/09 Q1025 NOSIG
 

Script ontwikkeld door  Saratoga-weather.org Aangepast voor de template door  Weerstation Leuven

U vindt ons ook hier:

Het Weer Aktueel

WOW Nederland KNMI

Vereniging voor Weerkunde en Klimatologie

UK Met Office Weather Observation Website (WOW)

WeatherCloud

Weather Underground

Awekas

Weatherlink IP

HAMweather, WeatherForYou, PWS Weather

Citizen Weather Observer Program (CWOP)

Apparatuur in gebruik:

Hardwareleverancier
Weerhuisje

Weerstation
Vantage Pro2+ +UV

Weercomputer's
alix3d2 & wl330n

Weerprogramma's
Smartbedded

Satelliet NOAA's
WRX137 & KX137

Satelliet Eumetsat
Ayecka SR1 & Triax

Bliksemdetectie
Boltek StormTracker

Webleverancier
F-Service

Weerhuisje

Vantage Pro2+ +UV

alix3d2 & wl330n

Smartbedded

WRX137 & KX137

Ayecka SR1 & Triax

Boltek StormTracker

F-Service